Time;durP1;ratioP1;P1;durP2;ratioP2;P2;SDS_P1;SDS_P2;PMS_P1;PMS_P2;Temp;Humidity;BMP_temperature;BMP_pressure;BME280_temperature;BME280_humidity;BME280_pressure;Samples;Min_cycle;Max_cycle;Signal;HPM_P1;HPM_P2
2023/03/07 00:01:03;;;;;;;15.10;7.70;;;;;;;-0.36;75.43;97668.03;105770;1251;75410;-25
2023/03/07 00:03:31;;;;;;;11.50;5.80;;;;;;;0.24;73.93;97670.30;105755;1251;75838;-25
2023/03/07 00:06:03;;;;;;;10.50;6.00;;;;;;;0.41;72.85;97664.48;105906;1251;74133;-25
2023/03/07 00:08:31;;;;;;;12.00;5.70;;;;;;;0.29;72.56;97663.84;105751;1251;61927;-25
2023/03/07 00:11:04;;;;;;;13.40;7.10;;;;;;;0.15;72.91;97662.78;105917;1251;61426;-25
2023/03/07 00:13:33;;;;;;;12.70;7.20;;;;;;;-0.03;73.29;97657.39;105723;1251;74170;-25
2023/03/07 00:16:05;;;;;;;12.70;7.60;;;;;;;-0.21;73.97;97655.37;105973;1254;74989;-25
2023/03/07 00:18:36;;;;;;;8.60;6.10;;;;;;;-0.40;74.87;97657.86;105767;1251;74052;-24
2023/03/07 00:21:05;;;;;;;9.50;5.90;;;;;;;-0.41;75.34;97652.95;105956;1251;62722;-25
2023/03/07 00:23:33;;;;;;;8.70;4.40;;;;;;;0.21;74.01;97656.83;105675;1258;61850;-25
2023/03/07 00:26:07;;;;;;;6.70;4.10;;;;;;;0.52;72.68;97652.04;105859;1251;75417;-25
2023/03/07 00:28:35;;;;;;;8.90;5.20;;;;;;;0.50;72.46;97652.81;105967;1251;75853;-25
2023/03/07 00:31:04;;;;;;;10.40;5.90;;;;;;;0.32;72.69;97651.04;106018;1256;74107;-25
2023/03/07 00:33:35;;;;;;;8.40;5.80;;;;;;;0.10;73.21;97652.86;105703;1251;61186;-25
2023/03/07 00:36:04;;;;;;;12.50;6.50;;;;;;;-0.06;73.94;97648.86;105955;1251;61721;-24
2023/03/07 00:38:32;;;;;;;11.00;6.40;;;;;;;-0.22;74.64;97646.73;105721;1251;75309;-25
2023/03/07 00:41:06;;;;;;;7.30;4.50;;;;;;;-0.27;75.15;97644.30;105737;1257;75752;-25
2023/03/07 00:43:34;;;;;;;5.10;3.40;;;;;;;0.14;74.57;97645.48;105761;1257;74254;-24
2023/03/07 00:46:01;;;;;;;7.00;4.30;;;;;;;0.68;72.78;97642.14;105667;1257;62657;-25
2023/03/07 00:48:29;;;;;;;7.80;4.30;;;;;;;0.80;71.72;97634.22;105730;1257;61973;-25
2023/03/07 00:50:56;;;;;;;9.70;5.50;;;;;;;0.73;71.58;97629.20;105796;1251;75584;-25
2023/03/07 00:53:24;;;;;;;10.60;5.80;;;;;;;0.57;71.91;97624.39;105920;1251;75588;-25
2023/03/07 00:56:00;;;;;;;11.90;6.60;;;;;;;0.44;71.98;97616.14;105751;1257;73385;-25
2023/03/07 00:58:29;;;;;;;9.90;6.10;;;;;;;0.28;72.22;97613.57;105707;1251;61059;-25
2023/03/07 01:00:56;;;;;;;8.40;5.40;;;;;;;0.12;72.96;97604.77;105948;1251;61146;-25
2023/03/07 01:03:23;;;;;;;10.70;6.30;;;;;;;0.02;73.37;97598.05;105941;1256;75389;-25
2023/03/07 01:05:53;;;;;;;5.50;3.80;;;;;;;-0.06;73.62;97595.47;105978;1255;75723;-24
2023/03/07 01:08:22;;;;;;;5.70;3.70;;;;;;;0.48;73.57;97591.30;105950;1251;74197;-25
2023/03/07 01:10:50;;;;;;;12.50;5.00;;;;;;;1.21;71.59;97584.92;105985;1251;61930;-26
2023/03/07 01:13:19;;;;;;;8.80;4.60;;;;;;;1.41;70.75;97582.00;105847;1256;61464;-25
2023/03/07 01:15:47;;;;;;;15.20;4.60;;;;;;;1.32;70.48;97576.48;105693;1251;75358;-25
2023/03/07 01:18:14;;;;;;;9.50;5.40;;;;;;;1.14;70.98;97573.25;105900;1251;75621;-25
2023/03/07 01:20:41;;;;;;;8.80;5.00;;;;;;;0.93;71.18;97573.04;105849;1256;74273;-25
2023/03/07 01:23:09;;;;;;;9.80;5.40;;;;;;;0.73;71.27;97573.98;105894;1251;61094;-25
2023/03/07 01:25:39;;;;;;;8.20;5.40;;;;;;;0.58;71.43;97576.14;105943;1251;61821;-25
2023/03/07 01:28:06;;;;;;;8.90;5.40;;;;;;;0.43;71.83;97577.43;105744;1251;75363;-24
2023/03/07 01:30:34;;;;;;;7.60;5.10;;;;;;;0.30;71.93;97577.07;105950;1251;75857;-25
2023/03/07 01:33:02;;;;;;;8.50;5.30;;;;;;;0.17;72.37;97574.45;105949;1251;73992;-25
2023/03/07 01:35:36;;;;;;;7.40;3.70;;;;;;;0.01;72.97;97570.67;105922;1256;61122;-26
2023/03/07 01:38:03;;;;;;;7.60;3.40;;;;;;;0.14;73.79;97569.98;105876;1251;61834;-26
2023/03/07 01:40:32;;;;;;;6.00;3.40;;;;;;;0.86;71.67;97564.09;106014;1251;75324;-27
2023/03/07 01:43:23;;;;;;;5.20;3.30;;;;;;;1.15;69.93;97559.95;105949;1254;75889;-26
2023/03/07 01:46:16;;;;;;;5.90;4.30;;;;;;;1.11;69.65;97558.51;105875;1254;74105;-26
2023/03/07 01:49:08;;;;;;;3.60;2.30;;;;;;;0.91;70.13;97554.23;105946;1254;61221;-26
2023/03/07 01:51:37;;;;;;;9.30;4.70;;;;;;;0.81;70.46;97554.68;105736;1258;61928;-24
2023/03/07 01:54:05;;;;;;;7.40;4.60;;;;;;;0.68;71.26;97551.91;105747;1251;74968;-24
2023/03/07 01:56:36;;;;;;;9.70;5.70;;;;;;;0.49;71.94;97548.02;105605;1251;75748;-24
2023/03/07 01:59:04;;;;;;;9.70;6.10;;;;;;;0.29;72.65;97547.23;105616;1251;73781;-24
2023/03/07 02:01:31;;;;;;;8.80;5.80;;;;;;;0.11;73.57;97545.59;105770;1251;61156;-24
2023/03/07 02:04:14;;;;;;;7.40;3.90;;;;;;;0.01;73.96;97543.86;105732;1258;61588;-24
2023/03/07 02:06:41;;;;;;;6.90;4.50;;;;;;;0.59;74.15;97540.34;105780;1251;75334;-24
2023/03/07 02:09:18;;;;;;;7.80;4.40;;;;;;;1.22;72.23;97539.86;106013;1251;75798;-24
2023/03/07 02:11:45;;;;;;;9.60;4.90;;;;;;;1.30;70.85;97536.60;105727;1254;74207;-25
2023/03/07 02:14:13;;;;;;;8.90;6.10;;;;;;;1.01;70.52;97535.27;105693;1251;61134;-23
2023/03/07 02:16:42;;;;;;;7.60;5.10;;;;;;;0.78;71.25;97541.89;105627;1252;61760;-24
2023/03/07 02:19:24;;;;;;;9.20;5.70;;;;;;;0.62;72.06;97540.70;105822;1251;75184;-24
2023/03/07 02:22:00;;;;;;;8.50;5.80;;;;;;;0.37;72.77;97541.27;105742;1252;76006;-24
2023/03/07 02:24:40;;;;;;;9.00;5.70;;;;;;;0.25;73.46;97543.54;105721;1251;73946;-24
2023/03/07 02:27:08;;;;;;;8.00;5.00;;;;;;;0.11;74.68;97542.73;105845;1251;61058;-23
2023/03/07 02:29:38;;;;;;;9.00;4.80;;;;;;;0.09;75.22;97541.80;105767;1251;61323;-23
2023/03/07 02:32:07;;;;;;;10.00;4.90;;;;;;;0.63;74.10;97541.30;105914;1252;75381;-24
2023/03/07 02:34:34;;;;;;;8.80;5.10;;;;;;;0.95;73.00;97536.02;105926;1251;75844;-24
2023/03/07 02:37:11;;;;;;;6.70;5.10;;;;;;;0.89;73.21;97531.95;105734;1254;74268;-24
2023/03/07 02:39:40;;;;;;;7.80;5.40;;;;;;;0.71;74.10;97534.67;105712;1251;61510;-24
2023/03/07 02:42:10;;;;;;;8.70;4.80;;;;;;;0.56;74.79;97536.30;105735;1251;61071;-24
2023/03/07 02:44:45;;;;;;;7.60;4.60;;;;;;;0.29;76.45;97536.63;105707;1251;75398;-23
2023/03/07 02:47:13;;;;;;;8.00;4.00;;;;;;;0.08;77.64;97533.18;105786;1251;74761;-23
2023/03/07 02:49:41;;;;;;;8.90;5.10;;;;;;;0.25;78.03;97530.44;105922;1253;72963;-24
2023/03/07 02:52:10;;;;;;;7.70;4.70;;;;;;;0.78;76.95;97535.08;105938;1251;61982;-23
2023/03/07 02:54:38;;;;;;;7.00;4.90;;;;;;;1.00;75.89;97534.13;105919;1257;61730;-23
2023/03/07 02:57:05;;;;;;;7.50;4.80;;;;;;;0.90;75.95;97536.45;105915;1251;75142;-25
2023/03/07 02:59:34;;;;;;;7.80;5.10;;;;;;;0.53;77.41;97534.09;105927;1251;74856;-24
2023/03/07 03:02:01;;;;;;;6.90;4.80;;;;;;;0.39;78.11;97533.64;105903;1254;74198;-23
2023/03/07 03:04:28;;;;;;;5.10;3.60;;;;;;;0.09;79.65;97529.70;105920;1251;61042;-23
2023/03/07 03:06:55;;;;;;;5.10;3.30;;;;;;;0.20;80.36;97528.86;105635;1251;61841;-23
2023/03/07 03:09:23;;;;;;;13.50;6.10;;;;;;;0.76;78.70;97523.89;106005;1251;75248;-24
2023/03/07 03:11:50;;;;;;;12.40;5.90;;;;;;;0.95;77.57;97524.18;105737;1258;74575;-24
2023/03/07 03:14:19;;;;;;;7.80;4.40;;;;;;;0.67;78.57;97525.87;105871;1254;74136;-23
2023/03/07 03:16:46;;;;;;;9.50;5.80;;;;;;;0.60;78.69;97529.04;105702;1251;61761;-23
2023/03/07 03:19:17;;;;;;;8.30;4.90;;;;;;;0.33;79.82;97529.08;105874;1251;61080;-23
2023/03/07 03:21:44;;;;;;;6.80;4.70;;;;;;;0.15;81.21;97519.94;105841;1251;75321;-23
2023/03/07 03:24:11;;;;;;;5.90;3.40;;;;;;;0.59;80.35;97524.30;105995;1257;74480;-24
2023/03/07 03:26:39;;;;;;;11.40;6.70;;;;;;;0.80;79.20;97521.96;105727;1260;74643;-24
2023/03/07 03:29:08;;;;;;;6.90;5.60;;;;;;;0.80;78.77;97521.94;106040;1252;61197;-23
2023/03/07 03:31:36;;;;;;;9.50;5.30;;;;;;;0.66;79.03;97522.20;105947;1257;61896;-23
2023/03/07 03:34:07;;;;;;;12.10;5.50;;;;;;;0.48;79.44;97520.94;105801;1251;75365;-23
2023/03/07 03:36:34;;;;;;;6.00;3.50;;;;;;;0.31;80.02;97524.74;105757;1251;74887;-24
2023/03/07 03:39:09;;;;;;;6.60;4.50;;;;;;;0.58;80.31;97521.52;105614;1259;73180;-24
2023/03/07 03:41:40;;;;;;;9.70;5.20;;;;;;;1.16;78.62;97524.84;105921;1251;61746;-24
2023/03/07 03:44:07;;;;;;;7.80;5.10;;;;;;;1.20;77.82;97525.11;105874;1251;61876;-23
2023/03/07 03:46:35;;;;;;;9.00;4.90;;;;;;;1.00;78.17;97524.23;105965;1256;75124;-23
2023/03/07 03:49:02;;;;;;;7.00;5.20;;;;;;;0.69;78.79;97520.05;105956;1251;75684;-24
2023/03/07 03:51:33;;;;;;;7.20;4.60;;;;;;;0.47;79.48;97522.55;105845;1251;74000;-23
2023/03/07 03:54:00;;;;;;;6.40;3.80;;;;;;;0.29;80.28;97518.55;105926;1251;62540;-23
2023/03/07 03:56:28;;;;;;;9.20;4.30;;;;;;;0.68;79.99;97521.02;105930;1251;61550;-24
2023/03/07 03:58:55;;;;;;;5.70;4.00;;;;;;;0.90;79.11;97524.73;105978;1251;75329;-24
2023/03/07 04:01:25;;;;;;;7.60;5.20;;;;;;;0.91;78.40;97526.67;105756;1257;74899;-23
2023/03/07 04:03:53;;;;;;;9.80;5.30;;;;;;;0.69;78.33;97528.95;105784;1259;71202;-24
2023/03/07 04:06:31;;;;;;;7.90;4.50;;;;;;;0.37;79.54;97526.90;105998;1251;61129;-24
2023/03/07 04:09:04;;;;;;;4.50;3.40;;;;;;;0.06;81.01;97527.14;105783;1256;61851;-23
2023/03/07 04:11:33;;;;;;;7.30;4.50;;;;;;;0.31;81.56;97530.73;105638;1251;75242;-24
2023/03/07 04:14:01;;;;;;;6.50;4.30;;;;;;;0.77;79.49;97525.75;105650;1251;75683;-24
2023/03/07 04:16:29;;;;;;;7.70;4.80;;;;;;;0.75;78.84;97528.58;104331;1251;2106983;-24
2023/03/07 04:18:56;;;;;;;6.00;4.60;;;;;;;0.54;78.94;97534.06;105860;1254;61142;-23
2023/03/07 04:21:23;;;;;;;8.70;5.20;;;;;;;0.30;79.49;97534.36;106018;1254;61735;-24
2023/03/07 04:23:57;;;;;;;5.80;4.10;;;;;;;0.01;80.45;97535.52;105586;1251;75563;-24
2023/03/07 04:26:28;;;;;;;8.00;4.40;;;;;;;0.12;80.70;97539.93;105723;1251;74700;-25
2023/03/07 04:28:57;;;;;;;6.10;4.20;;;;;;;0.69;79.63;97536.02;105880;1251;73209;-26
2023/03/07 04:31:39;;;;;;;8.10;4.30;;;;;;;0.77;78.77;97538.67;105775;1251;61745;-26
2023/03/07 04:34:07;;;;;;;8.10;5.30;;;;;;;0.55;78.94;97541.31;105561;1259;61841;-25
2023/03/07 04:36:35;;;;;;;8.00;4.00;;;;;;;0.33;79.49;97537.09;105875;1251;75176;-26
2023/03/07 04:39:03;;;;;;;7.20;4.30;;;;;;;0.11;79.88;97538.27;105979;1251;75971;-26
2023/03/07 04:41:31;;;;;;;7.80;3.60;;;;;;;-0.08;80.60;97533.16;105971;1251;74224;-24
2023/03/07 04:44:09;;;;;;;7.90;5.10;;;;;;;0.29;80.58;97533.75;105735;1251;61010;-24
2023/03/07 04:46:36;;;;;;;8.30;5.00;;;;;;;0.77;79.13;97531.86;105776;1257;61597;-24
2023/03/07 04:49:04;;;;;;;7.80;4.40;;;;;;;0.76;78.53;97535.70;105887;1251;75537;-24
2023/03/07 04:51:31;;;;;;;7.10;5.20;;;;;;;0.61;78.50;97537.02;105843;1257;75864;-24
2023/03/07 04:54:00;;;;;;;6.80;4.20;;;;;;;0.35;79.00;97536.09;105923;1256;73980;-24
2023/03/07 04:56:28;;;;;;;6.80;4.50;;;;;;;0.06;79.59;97537.08;105987;1251;61051;-24
2023/03/07 04:58:56;;;;;;;7.10;4.90;;;;;;;-0.17;80.32;97539.69;105972;1251;61732;-24
2023/03/07 05:01:23;;;;;;;5.10;3.80;;;;;;;-0.32;81.06;97538.36;105993;1251;75186;-24
2023/03/07 05:03:51;;;;;;;4.30;3.30;;;;;;;0.14;80.66;97534.66;105934;1257;74649;-26
2023/03/07 05:06:19;;;;;;;6.60;4.40;;;;;;;0.67;79.31;97538.35;105977;1251;72191;-25
2023/03/07 05:08:49;;;;;;;9.20;4.10;;;;;;;0.71;78.37;97538.89;105838;1251;61169;-24
2023/03/07 05:11:17;;;;;;;7.50;5.00;;;;;;;0.51;78.56;97538.36;105944;1256;61844;-24
2023/03/07 05:13:44;;;;;;;7.30;5.10;;;;;;;0.28;79.01;97537.03;106010;1251;74242;-24
2023/03/07 05:16:16;;;;;;;7.80;4.80;;;;;;;0.05;79.55;97539.16;105860;1255;75687;-24
2023/03/07 05:18:44;;;;;;;8.90;4.40;;;;;;;-0.14;80.07;97540.55;105915;1251;73220;-24
2023/03/07 05:21:11;;;;;;;9.60;5.10;;;;;;;-0.08;80.84;97536.91;105664;1251;62675;-24
2023/03/07 05:23:40;;;;;;;8.00;4.70;;;;;;;0.58;79.71;97541.98;105793;1256;61344;-24
2023/03/07 05:26:08;;;;;;;4.40;3.20;;;;;;;0.88;78.27;97540.91;105843;1255;75398;-24
2023/03/07 05:28:35;;;;;;;6.70;4.50;;;;;;;0.78;77.93;97545.48;105906;1257;75752;-24
2023/03/07 05:31:03;;;;;;;8.50;4.90;;;;;;;0.60;78.16;97545.98;105728;1251;74161;-24
2023/03/07 05:33:31;;;;;;;8.60;5.30;;;;;;;0.44;78.55;97546.29;105958;1256;61417;-24
2023/03/07 05:36:00;;;;;;;8.70;4.20;;;;;;;0.30;79.12;97550.27;105968;1255;61853;-24
2023/03/07 05:38:28;;;;;;;7.70;4.30;;;;;;;0.21;79.32;97550.14;105953;1256;74145;-24
2023/03/07 05:42:02;;;;;;;7.70;4.70;;;;;;;0.94;78.66;97551.63;103036;1292;600477;-25
2023/03/07 05:44:33;;;;;;;8.00;4.70;;;;;;;1.31;76.74;97554.60;105134;1264;61954;-26
2023/03/07 05:47:04;;;;;;;7.90;5.00;;;;;;;1.28;76.17;97561.67;105091;1269;62153;-26
2023/03/07 05:49:33;;;;;;;6.40;4.20;;;;;;;1.08;76.51;97560.61;105162;1272;72536;-26
2023/03/07 05:52:02;;;;;;;8.10;5.80;;;;;;;0.89;76.73;97566.32;105139;1269;75802;-26
2023/03/07 05:54:31;;;;;;;6.40;4.70;;;;;;;0.64;77.82;97569.42;103676;1269;2044123;-26
2023/03/07 05:57:00;;;;;;;6.30;4.60;;;;;;;0.52;78.28;97572.95;104867;1264;61124;-25
2023/03/07 05:59:28;;;;;;;6.80;3.80;;;;;;;0.60;78.55;97569.88;105088;1264;61518;-26
2023/03/07 06:01:57;;;;;;;6.10;3.40;;;;;;;1.20;77.60;97575.52;105072;1268;73797;-25
2023/03/07 06:04:26;;;;;;;7.10;4.60;;;;;;;1.56;75.93;97580.48;105224;1269;76011;-25
2023/03/07 06:06:54;;;;;;;7.90;5.50;;;;;;;1.50;75.68;97573.54;105091;1267;74380;-26
2023/03/07 06:09:24;;;;;;;8.40;5.40;;;;;;;1.36;75.78;97574.82;105090;1267;61074;-25
2023/03/07 06:11:53;;;;;;;8.90;5.40;;;;;;;1.16;76.28;97572.27;105235;1269;61186;-26
2023/03/07 06:14:29;;;;;;;11.90;5.50;;;;;;;1.03;76.88;97574.45;105890;1251;73901;-25
2023/03/07 06:17:00;;;;;;;8.40;4.40;;;;;;;0.94;77.25;97575.87;105689;1258;75996;-25
2023/03/07 06:19:29;;;;;;;6.70;4.70;;;;;;;0.98;77.51;97579.02;105763;1256;73143;-25
2023/03/07 06:21:59;;;;;;;8.90;4.90;;;;;;;1.62;76.38;97583.66;105924;1254;61232;-26
2023/03/07 06:24:29;;;;;;;8.70;5.00;;;;;;;2.02;74.69;97585.95;105715;1254;61907;-26
2023/03/07 06:26:58;;;;;;;6.70;4.50;;;;;;;2.05;73.83;97589.86;105968;1252;74211;-26
2023/03/07 06:29:28;;;;;;;7.80;4.80;;;;;;;1.90;73.83;97589.67;105983;1257;75961;-25
2023/03/07 06:31:58;;;;;;;7.10;4.60;;;;;;;1.87;74.11;97588.16;105960;1251;73160;-26
2023/03/07 06:34:27;;;;;;;8.90;4.80;;;;;;;1.73;74.25;97584.71;105756;1251;61103;-26
2023/03/07 06:36:56;;;;;;;6.90;5.10;;;;;;;1.61;74.56;97581.22;105973;1251;61867;-26
2023/03/07 06:39:25;;;;;;;8.80;5.10;;;;;;;1.49;74.86;97580.80;105952;1253;73569;-26
2023/03/07 06:41:57;;;;;;;6.80;3.90;;;;;;;1.38;75.15;97586.30;105687;1257;75921;-26
2023/03/07 06:44:25;;;;;;;6.20;4.40;;;;;;;1.74;74.82;97587.13;105924;1256;74155;-26
2023/03/07 06:46:58;;;;;;;6.50;4.30;;;;;;;2.25;73.07;97594.27;105698;1252;61881;-26
2023/03/07 06:49:26;;;;;;;6.70;4.90;;;;;;;2.38;72.31;97596.77;105964;1257;61755;-26
2023/03/07 06:51:56;;;;;;;7.90;4.10;;;;;;;2.36;72.20;97601.71;105723;1251;74364;-26
2023/03/07 06:54:31;;;;;;;10.00;5.70;;;;;;;2.15;72.57;97601.11;105807;1257;75890;-26
2023/03/07 06:56:59;;;;;;;10.10;5.50;;;;;;;2.01;72.93;97597.84;105672;1254;73922;-26
2023/03/07 06:59:28;;;;;;;8.40;5.80;;;;;;;1.90;74.06;97598.03;105753;1252;61110;-26
2023/03/07 07:01:57;;;;;;;8.10;4.20;;;;;;;1.85;74.05;97596.45;105674;1257;61678;-26
2023/03/07 07:04:26;;;;;;;5.80;4.10;;;;;;;1.60;74.11;97590.85;105769;1257;73398;-26
2023/03/07 07:06:58;;;;;;;10.10;5.60;;;;;;;1.54;74.82;97600.28;105697;1253;75822;-26
2023/03/07 07:09:27;;;;;;;6.10;3.90;;;;;;;1.65;75.17;97589.48;105892;1254;74272;-26
2023/03/07 07:11:56;;;;;;;9.80;5.60;;;;;;;2.27;73.82;97597.71;105731;1254;61129;-25
2023/03/07 07:14:25;;;;;;;7.20;4.30;;;;;;;2.76;71.25;97599.23;105817;1256;61617;-26
2023/03/07 07:16:54;;;;;;;9.70;6.70;;;;;;;2.80;71.06;97596.33;105901;1251;74361;-25
2023/03/07 07:19:22;;;;;;;7.70;5.00;;;;;;;2.77;71.67;97602.56;105698;1254;75802;-25
2023/03/07 07:21:52;;;;;;;6.60;3.90;;;;;;;2.88;70.88;97596.65;105740;1253;74150;-26
2023/03/07 07:24:22;;;;;;;8.50;5.70;;;;;;;2.88;70.29;97595.13;105782;1256;61087;-26
2023/03/07 07:26:51;;;;;;;5.50;4.40;;;;;;;2.61;70.62;97587.11;105849;1257;61539;-26
2023/03/07 07:29:21;;;;;;;9.00;6.00;;;;;;;2.53;71.43;97595.56;105973;1251;74681;-26
2023/03/07 07:31:50;;;;;;;7.80;4.70;;;;;;;2.59;70.74;97593.91;105745;1260;75206;-26
2023/03/07 07:34:19;;;;;;;8.20;6.20;;;;;;;2.63;71.44;97596.05;105933;1255;74236;-24
2023/03/07 07:36:48;;;;;;;9.50;6.00;;;;;;;2.68;70.68;97588.46;105918;1254;61364;-23
2023/03/07 07:39:17;;;;;;;9.90;7.00;;;;;;;2.63;70.64;97597.23;105928;1253;62057;-23
2023/03/07 07:41:46;;;;;;;11.60;5.80;;;;;;;2.70;70.40;97595.55;105735;1251;73515;-24
2023/03/07 07:44:15;;;;;;;8.50;4.70;;;;;;;2.76;70.37;97599.41;105733;1254;74755;-24
2023/03/07 07:46:52;;;;;;;8.90;6.10;;;;;;;2.96;69.52;97603.64;105953;1253;73958;-24
2023/03/07 07:49:21;;;;;;;7.40;4.90;;;;;;;2.90;69.07;97606.48;105934;1251;61058;-24
2023/03/07 07:51:50;;;;;;;9.90;5.90;;;;;;;2.98;69.37;97605.89;105892;1257;61893;-24
2023/03/07 07:54:19;;;;;;;10.30;6.40;;;;;;;2.88;68.48;97610.67;105946;1254;73295;-24
2023/03/07 07:56:49;;;;;;;10.00;7.60;;;;;;;2.84;68.52;97609.08;105689;1254;75704;-24
2023/03/07 07:59:18;;;;;;;13.90;8.10;;;;;;;2.54;69.82;97609.70;105803;1251;73977;-24
2023/03/07 08:01:47;;;;;;;9.70;6.30;;;;;;;2.36;69.33;97611.51;105822;1251;61109;-24
2023/03/07 08:04:16;;;;;;;9.40;6.40;;;;;;;2.04;69.22;97601.71;105871;1254;61778;-24
2023/03/07 08:06:46;;;;;;;10.90;6.90;;;;;;;1.98;69.87;97613.13;105891;1251;74544;-24
2023/03/07 08:09:15;;;;;;;11.60;7.10;;;;;;;1.80;70.44;97611.94;105930;1254;75834;-23
2023/03/07 08:11:46;;;;;;;10.40;7.10;;;;;;;1.93;71.10;97620.10;105601;1251;73988;-24
2023/03/07 08:14:14;;;;;;;7.10;6.00;;;;;;;2.43;70.73;97623.68;105682;1254;60983;-24
2023/03/07 08:16:43;;;;;;;9.10;5.90;;;;;;;2.50;69.14;97626.60;105838;1256;61445;-25
2023/03/07 08:19:11;;;;;;;13.10;7.30;;;;;;;2.33;69.28;97634.28;105606;1254;74094;-25
2023/03/07 08:21:40;;;;;;;11.30;7.20;;;;;;;2.22;70.77;97635.74;105893;1251;74628;-25
2023/03/07 08:24:09;;;;;;;12.30;8.10;;;;;;;2.02;71.23;97640.55;105933;1251;73983;-24
2023/03/07 08:26:38;;;;;;;11.40;7.90;;;;;;;1.94;71.34;97640.77;105882;1254;61093;-25
2023/03/07 08:29:07;;;;;;;8.30;5.30;;;;;;;1.79;71.64;97638.34;105942;1254;61624;-25
2023/03/07 08:31:35;;;;;;;9.10;6.60;;;;;;;1.80;71.12;97634.13;105791;1255;74491;-25
2023/03/07 08:34:04;;;;;;;10.40;6.60;;;;;;;1.73;70.66;97635.49;105853;1255;76043;-25
2023/03/07 08:36:33;;;;;;;10.30;6.00;;;;;;;1.97;70.39;97627.01;105922;1251;74099;-25
2023/03/07 08:39:06;;;;;;;7.30;5.90;;;;;;;2.32;70.03;97631.63;105848;1257;61095;-25
2023/03/07 08:41:37;;;;;;;6.60;4.90;;;;;;;2.71;69.25;97630.92;105671;1251;61055;-25
2023/03/07 08:44:05;;;;;;;16.70;6.80;;;;;;;3.07;68.30;97633.99;105712;1251;74618;-25
2023/03/07 08:46:37;;;;;;;7.80;5.50;;;;;;;3.37;66.60;97628.75;105841;1257;74966;-25
2023/03/07 08:49:06;;;;;;;8.70;6.10;;;;;;;3.54;64.54;97629.06;105686;1255;73227;-25
2023/03/07 08:51:34;;;;;;;9.70;6.80;;;;;;;3.60;64.76;97632.52;105766;1254;61199;-25
2023/03/07 08:54:03;;;;;;;11.70;7.10;;;;;;;3.88;64.61;97634.37;105920;1256;61721;-25
2023/03/07 08:56:33;;;;;;;10.10;6.70;;;;;;;4.05;64.19;97638.19;105900;1254;74800;-25
2023/03/07 08:59:01;;;;;;;7.60;5.30;;;;;;;4.28;63.21;97641.66;105896;1251;76102;-25
2023/03/07 09:01:30;;;;;;;10.10;6.20;;;;;;;4.38;62.10;97643.06;105742;1256;73781;-25
2023/03/07 09:03:58;;;;;;;7.80;5.20;;;;;;;4.67;60.94;97641.30;105744;1254;61954;-25
2023/03/07 09:06:27;;;;;;;8.10;4.80;;;;;;;4.85;58.66;97642.52;105926;1255;61617;-25
2023/03/07 09:08:56;;;;;;;8.80;6.50;;;;;;;4.84;57.10;97637.04;105762;1257;74848;-25
2023/03/07 09:11:26;;;;;;;6.90;4.90;;;;;;;4.88;58.39;97637.10;105858;1253;75842;-25
2023/03/07 09:13:54;;;;;;;8.50;5.20;;;;;;;5.12;57.66;97631.54;105894;1252;73934;-25
2023/03/07 09:16:23;;;;;;;12.20;6.70;;;;;;;5.21;57.59;97638.41;105966;1254;61197;-25
2023/03/07 09:18:52;;;;;;;9.00;6.40;;;;;;;5.34;56.87;97636.08;105950;1257;61921;-25
2023/03/07 09:21:20;;;;;;;6.30;4.40;;;;;;;5.48;54.96;97630.86;105742;1254;74363;-25
2023/03/07 09:23:49;;;;;;;7.80;5.00;;;;;;;5.66;54.33;97628.89;105929;1256;75809;-25
2023/03/07 09:26:18;;;;;;;6.80;5.00;;;;;;;5.40;54.19;97632.22;105924;1254;74343;-25
2023/03/07 09:28:47;;;;;;;7.60;5.60;;;;;;;4.84;55.40;97633.80;105937;1253;61880;-25
2023/03/07 09:31:15;;;;;;;7.80;5.70;;;;;;;4.45;56.87;97637.23;105863;1255;61635;-25
2023/03/07 09:33:45;;;;;;;6.60;4.50;;;;;;;5.02;56.91;97634.42;105845;1255;74603;-25
2023/03/07 09:36:19;;;;;;;10.10;5.90;;;;;;;5.35;54.44;97627.98;105642;1253;75837;-25
2023/03/07 09:38:48;;;;;;;10.40;5.40;;;;;;;5.45;54.89;97629.35;105667;1257;74188;-25
2023/03/07 09:41:48;;;;;;;8.20;5.60;;;;;;;5.69;54.12;97631.67;105597;1258;61747;-25
2023/03/07 09:44:36;;;;;;;9.10;5.90;;;;;;;6.08;52.57;97630.05;105925;1254;61577;-25
2023/03/07 09:47:45;;;;;;;5.60;4.20;;;;;;;6.21;51.65;97634.96;105718;1251;74364;-25
2023/03/07 09:50:43;;;;;;;11.00;6.10;;;;;;;5.87;51.28;97638.96;105665;1254;74923;-25
2023/03/07 09:53:21;;;;;;;7.40;5.10;;;;;;;5.60;53.04;97640.21;105717;1254;73970;-25
2023/03/07 09:55:51;;;;;;;8.10;5.60;;;;;;;5.82;52.09;97638.71;105655;1254;61098;-25
2023/03/07 09:58:22;;;;;;;8.70;5.50;;;;;;;6.02;51.39;97638.75;105850;1255;61583;-25
2023/03/07 10:00:56;;;;;;;9.00;5.70;;;;;;;6.23;51.14;97634.94;105604;1259;75083;-25
2023/03/07 10:03:38;;;;;;;8.70;5.70;;;;;;;5.83;51.57;97634.81;105692;1257;75814;-25
2023/03/07 10:06:30;;;;;;;10.00;6.80;;;;;;;5.24;52.83;97637.60;105607;1260;73331;-25
2023/03/07 10:08:59;;;;;;;7.60;5.30;;;;;;;4.85;54.47;97643.16;105759;1256;61163;-25
2023/03/07 10:11:34;;;;;;;7.00;5.50;;;;;;;4.72;54.29;97638.57;105971;1256;61761;-25
2023/03/07 10:14:21;;;;;;;11.50;7.30;;;;;;;4.61;55.45;97639.00;105743;1254;75507;-25
2023/03/07 10:17:29;;;;;;;11.80;8.00;;;;;;;4.26;56.11;97636.60;105718;1258;75826;-26
2023/03/07 10:20:23;;;;;;;10.00;7.00;;;;;;;3.85;57.75;97627.06;105870;1254;74244;-25
2023/03/07 10:23:07;;;;;;;8.50;6.20;;;;;;;3.79;58.26;97625.09;105917;1254;61153;-25
2023/03/07 10:25:47;;;;;;;9.50;6.30;;;;;;;3.76;58.60;97628.59;105734;1259;61661;-25
2023/03/07 10:28:27;;;;;;;11.00;7.80;;;;;;;3.67;58.31;97629.11;105637;1257;75115;-25
2023/03/07 10:31:17;;;;;;;9.50;6.60;;;;;;;3.46;58.33;97624.52;105591;1255;74995;-25
2023/03/07 10:33:47;;;;;;;11.20;7.30;;;;;;;3.41;58.97;97627.79;105712;1251;74199;-25
2023/03/07 10:36:39;;;;;;;10.60;7.90;;;;;;;3.36;59.73;97628.66;105617;1259;61289;-25
2023/03/07 10:39:15;;;;;;;9.40;6.80;;;;;;;3.44;59.20;97624.82;105662;1253;61164;-25
2023/03/07 10:41:46;;;;;;;9.50;6.80;;;;;;;3.32;60.07;97627.41;105696;1254;75467;-26
2023/03/07 10:44:20;;;;;;;11.60;7.10;;;;;;;3.24;59.67;97626.44;105846;1256;74866;-25
2023/03/07 10:46:56;;;;;;;13.90;8.10;;;;;;;3.33;59.99;97628.67;105769;1253;74212;-25
2023/03/07 10:49:41;;;;;;;10.60;7.40;;;;;;;3.34;60.44;97626.23;105552;1254;61128;-25
2023/03/07 10:52:28;;;;;;;8.90;6.40;;;;;;;3.43;60.19;97622.61;105705;1259;61810;-26
2023/03/07 10:55:37;;;;;;;12.10;8.10;;;;;;;3.41;60.39;97623.83;105725;1254;75391;-25
2023/03/07 10:58:11;;;;;;;9.80;7.70;;;;;;;3.21;60.70;97621.19;105759;1259;76123;-25
2023/03/07 11:00:43;;;;;;;10.00;7.00;;;;;;;3.24;61.41;97626.94;105863;1253;73915;-25
2023/03/07 11:03:25;;;;;;;10.60;7.30;;;;;;;3.33;60.63;97622.15;105676;1254;61774;-25
2023/03/07 11:05:54;;;;;;;8.40;5.80;;;;;;;3.40;60.17;97628.33;105610;1257;61152;-25
2023/03/07 11:08:26;;;;;;;10.10;6.10;;;;;;;3.36;59.19;97619.38;105725;1253;75548;-25
2023/03/07 11:10:57;;;;;;;8.80;6.00;;;;;;;3.43;58.29;97620.72;105486;1254;74786;-27
2023/03/07 11:13:27;;;;;;;8.20;5.90;;;;;;;3.43;58.23;97622.65;105659;1253;74095;-26
2023/03/07 11:16:18;;;;;;;9.10;6.80;;;;;;;3.47;58.24;97617.23;105889;1253;61164;-24
2023/03/07 11:18:48;;;;;;;7.80;4.90;;;;;;;3.44;58.18;97612.60;105715;1253;61106;-26
2023/03/07 11:21:37;;;;;;;13.10;6.60;;;;;;;3.49;58.00;97615.86;105878;1253;75371;-25
2023/03/07 11:24:23;;;;;;;9.10;5.90;;;;;;;3.46;58.69;97616.64;105852;1254;75677;-24
2023/03/07 11:26:54;;;;;;;11.90;6.70;;;;;;;3.53;58.05;97610.23;105651;1253;73215;-24
2023/03/07 11:29:23;;;;;;;9.80;7.20;;;;;;;3.52;57.48;97609.10;105688;1253;61165;-25
2023/03/07 11:32:17;;;;;;;8.60;6.20;;;;;;;3.53;57.42;97607.33;105825;1253;61171;-25
2023/03/07 11:35:06;;;;;;;7.80;4.90;;;;;;;3.60;56.63;97608.81;105857;1253;75187;-25
2023/03/07 11:37:56;;;;;;;7.80;6.00;;;;;;;3.71;56.24;97609.41;105678;1253;75599;-25
2023/03/07 11:40:49;;;;;;;8.50;6.10;;;;;;;3.77;56.49;97609.63;105718;1253;73224;-25
2023/03/07 11:43:21;;;;;;;8.30;5.80;;;;;;;3.80;55.59;97610.78;105897;1252;61126;-25
2023/03/07 11:46:06;;;;;;;12.30;5.80;;;;;;;3.84;55.34;97611.48;105742;1253;61163;-26
2023/03/07 11:48:50;;;;;;;6.10;4.50;;;;;;;3.86;54.85;97612.05;105833;1253;75388;-28
2023/03/07 11:51:40;;;;;;;9.50;4.90;;;;;;;3.83;55.15;97611.54;105724;1254;75856;-28
2023/03/07 11:54:44;;;;;;;10.00;6.20;;;;;;;3.84;56.26;97615.09;105727;1257;72934;-27